Time;durP1;ratioP1;P1;durP2;ratioP2;P2;SDS_P1;SDS_P2;PMS_P1;PMS_P2;Temp;Humidity;BMP_temperature;BMP_pressure;BME280_temperature;BME280_humidity;BME280_pressure;Samples;Min_cycle;Max_cycle;Signal;HPM_P1;HPM_P2
2022/01/22 00:01:20;;;;;;;3.95;1.92;;;;;;;-1.08;49.70;100155.09;3153355;28;20056;-60
2022/01/22 00:02:53;;;;;;;8.10;2.03;;;;;;;-1.11;49.60;100155.91;3149411;28;20048;-60
2022/01/22 00:04:25;;;;;;;5.45;1.88;;;;;;;-1.35;49.63;100118.25;3146156;28;20058;-60
2022/01/22 00:05:57;;;;;;;7.28;2.20;;;;;;;-1.15;49.78;100152.47;3153772;28;20050;-61
2022/01/22 00:07:29;;;;;;;6.25;1.98;;;;;;;-1.17;49.74;100153.31;3156326;28;20055;-59
2022/01/22 00:09:01;;;;;;;6.35;2.08;;;;;;;-1.19;49.89;100143.06;3149249;28;20055;-60
2022/01/22 00:10:34;;;;;;;5.60;1.65;;;;;;;-1.20;49.85;100149.03;3154090;28;20043;-60
2022/01/22 00:12:11;;;;;;;5.00;1.63;;;;;;;-1.22;49.92;100157.50;3146833;28;20052;-59
2022/01/22 00:15:33;;;;;;;4.38;1.52;;;;;;;-1.29;50.19;100154.06;3149447;28;20044;-62
2022/01/22 00:17:05;;;;;;;5.30;1.90;;;;;;;-1.30;50.04;100151.47;3145707;28;20048;-61
2022/01/22 00:18:37;;;;;;;5.72;1.42;;;;;;;-1.30;49.91;100160.03;3151659;28;20128;-61
2022/01/22 00:20:11;;;;;;;4.88;1.55;;;;;;;-1.49;50.04;100122.38;3153335;28;20049;-61
2022/01/22 00:21:43;;;;;;;5.07;1.42;;;;;;;-1.31;50.10;100154.88;3149558;28;20044;-61
2022/01/22 00:23:19;;;;;;;3.17;1.30;;;;;;;-1.32;50.15;100154.03;3156507;28;20097;-61
2022/01/22 00:24:56;;;;;;;2.47;1.23;;;;;;;-1.32;50.04;100153.19;3149008;28;20091;-61
2022/01/22 00:26:27;;;;;;;4.40;1.40;;;;;;;-1.33;50.06;100154.00;3149166;28;20576;-61
2022/01/22 00:28:01;;;;;;;2.35;0.98;;;;;;;-1.32;50.02;100155.75;3151527;28;20040;-61
2022/01/22 00:29:33;;;;;;;4.32;1.40;;;;;;;-1.35;50.11;100156.56;3144846;28;20709;-61
2022/01/22 00:31:04;;;;;;;5.30;1.88;;;;;;;-1.37;50.06;100159.09;3151355;28;20495;-62
2022/01/22 00:32:37;;;;;;;3.80;1.80;;;;;;;-1.76;50.06;100082.97;3150267;28;20641;-61
2022/01/22 00:34:09;;;;;;;4.38;1.90;;;;;;;-1.35;49.95;100151.47;3145044;28;20044;-61
2022/01/22 00:35:41;;;;;;;7.90;2.05;;;;;;;-1.37;50.04;100146.31;3153082;28;20765;-61
2022/01/22 00:37:13;;;;;;;4.20;1.90;;;;;;;-1.36;50.05;100136.97;3144648;28;20523;-61
2022/01/22 00:38:45;;;;;;;4.63;1.52;;;;;;;-1.36;50.10;100149.75;3150506;28;20565;-61
2022/01/22 00:40:18;;;;;;;4.90;2.42;;;;;;;-1.58;50.10;100097.59;3152266;28;20048;-61
2022/01/22 00:41:50;;;;;;;;;;;;;;;-1.55;50.27;100132.53;3145544;28;20098;-62
2022/01/22 00:43:23;;;;;;;4.13;1.67;;;;;;;-1.52;50.40;100137.66;3151438;28;19920;-63
2022/01/22 00:44:55;;;;;;;10.27;1.98;;;;;;;-1.49;50.27;100136.00;3151026;28;20097;-62
2022/01/22 00:46:27;;;;;;;4.07;1.80;;;;;;;-1.47;50.23;100144.53;3146536;28;20582;-62
2022/01/22 00:47:59;;;;;;;4.75;1.83;;;;;;;-1.47;50.17;100151.34;3153758;28;20047;-62
2022/01/22 00:49:32;;;;;;;5.15;2.13;;;;;;;-1.47;50.17;100148.78;3149857;28;20055;-62
2022/01/22 00:51:03;;;;;;;8.30;1.88;;;;;;;-1.51;50.22;100144.47;3146139;28;20433;-62
2022/01/22 00:52:35;;;;;;;5.53;1.90;;;;;;;-1.50;50.05;100147.06;3151312;28;20121;-62
2022/01/22 00:54:07;;;;;;;3.90;1.50;;;;;;;-1.52;49.98;100147.88;3151356;28;20053;-63
2022/01/22 00:55:39;;;;;;;5.55;1.92;;;;;;;-1.53;49.95;100135.97;3151857;28;20053;-62
2022/01/22 00:57:11;;;;;;;5.22;1.92;;;;;;;-1.52;49.73;100138.53;3148241;28;20117;-62
2022/01/22 00:58:44;;;;;;;4.50;1.60;;;;;;;-1.52;49.48;100145.34;3146677;28;20101;-62
2022/01/22 01:00:18;;;;;;;6.03;1.95;;;;;;;-1.54;49.60;100140.19;3152322;28;20048;-62
2022/01/22 01:01:51;;;;;;;5.80;1.85;;;;;;;-1.54;49.46;100144.44;3146754;28;20448;-62
2022/01/22 01:03:22;;;;;;;5.45;1.90;;;;;;;-1.55;49.45;100141.06;3148835;28;20125;-62
2022/01/22 01:04:54;;;;;;;6.10;2.03;;;;;;;-1.54;49.38;100145.31;3154512;28;20047;-62
2022/01/22 01:06:26;;;;;;;6.32;2.03;;;;;;;-1.76;49.11;100108.50;3149746;28;20121;-62
2022/01/22 01:07:58;;;;;;;5.45;1.98;;;;;;;-1.55;49.11;100138.50;3149455;28;20052;-62
2022/01/22 01:09:40;;;;;;;6.78;2.00;;;;;;;-1.56;48.98;100134.25;3151469;28;20052;-63
2022/01/22 01:11:13;;;;;;;4.63;1.55;;;;;;;-1.59;49.08;100131.66;3146167;28;20060;-62
2022/01/22 01:12:47;;;;;;;8.07;2.22;;;;;;;-1.61;48.94;100129.06;3154062;28;20048;-62
2022/01/22 01:14:27;;;;;;;6.00;1.80;;;;;;;-1.59;48.97;100128.25;3148982;28;20518;-62
2022/01/22 01:16:03;;;;;;;7.03;2.13;;;;;;;-1.64;48.96;100125.66;3150637;28;20044;-63
2022/01/22 01:17:56;;;;;;;9.93;2.80;;;;;;;-1.65;49.18;100127.34;3151592;28;20048;-62
2022/01/22 01:32:38;;;;;;;5.78;1.58;;;;;;;-1.81;48.77;100120.38;3149155;28;20491;-62
2022/01/22 01:34:12;;;;;;;3.10;1.40;;;;;;;-1.83;48.62;100111.84;3150926;28;20506;-62
2022/01/22 01:35:43;;;;;;;7.05;1.30;;;;;;;-1.77;48.52;100118.72;3155477;28;20211;-62
2022/01/22 01:37:17;;;;;;;5.20;1.48;;;;;;;-1.76;48.38;100121.28;3156021;28;20558;-62
2022/01/22 01:38:54;;;;;;;3.17;1.40;;;;;;;-1.74;48.27;100122.16;3152860;28;20082;-62
2022/01/22 01:40:27;;;;;;;4.78;1.50;;;;;;;-1.74;48.29;100117.06;3147744;28;20142;-62
2022/01/22 01:42:04;;;;;;;5.00;1.15;;;;;;;-1.72;48.11;100110.25;3148388;28;20070;-62
2022/01/22 01:43:38;;;;;;;4.47;1.20;;;;;;;-1.72;48.06;100102.56;3152533;28;20044;-62
2022/01/22 01:45:11;;;;;;;3.65;1.25;;;;;;;-1.72;48.05;100104.28;3151179;28;20328;-63
2022/01/22 01:46:48;;;;;;;3.75;1.20;;;;;;;-1.72;48.07;100102.56;3150372;28;20056;-62
2022/01/22 01:48:25;;;;;;;4.03;1.50;;;;;;;-1.73;47.96;100103.44;3153996;28;20040;-63
2022/01/22 01:49:57;;;;;;;4.20;1.27;;;;;;;-1.72;47.94;100107.69;3144673;28;20563;-62
2022/01/22 01:51:31;;;;;;;2.65;1.02;;;;;;;-1.71;47.93;100100.91;3150269;28;20044;-62
2022/01/22 01:53:10;;;;;;;2.92;1.00;;;;;;;-1.73;47.93;100108.53;3150377;28;20047;-62
2022/01/22 01:54:48;;;;;;;3.30;1.15;;;;;;;-1.72;47.73;100106.84;3144709;28;20162;-62
2022/01/22 01:58:09;;;;;;;2.65;1.20;;;;;;;-1.75;47.88;100104.25;3144455;28;20135;-62
2022/01/22 01:59:41;;;;;;;4.40;1.35;;;;;;;-1.71;47.90;100103.47;3150081;28;20106;-62
2022/01/22 02:01:13;;;;;;;3.38;1.48;;;;;;;-1.72;47.59;100100.03;3150855;28;20053;-62
2022/01/22 02:02:48;;;;;;;3.53;1.10;;;;;;;-1.70;47.62;100100.06;3144378;28;20048;-62
2022/01/22 02:04:20;;;;;;;3.72;1.02;;;;;;;-1.70;47.52;100097.50;3149598;28;20190;-62
2022/01/22 02:05:52;;;;;;;4.20;1.35;;;;;;;-1.69;47.55;100100.06;3148625;28;20436;-62
2022/01/22 02:07:24;;;;;;;3.42;1.05;;;;;;;-1.69;47.38;100096.66;3146198;28;20048;-62
2022/01/22 02:08:56;;;;;;;3.95;1.30;;;;;;;-1.70;47.44;100095.81;3152216;28;20056;-62
2022/01/22 02:10:31;;;;;;;3.47;1.10;;;;;;;-1.67;47.38;100100.09;3147516;28;20059;-62
2022/01/22 02:12:03;;;;;;;5.28;0.95;;;;;;;-1.70;47.46;100100.91;3144778;28;20053;-62
2022/01/22 02:13:45;;;;;;;4.53;0.85;;;;;;;-1.69;47.33;100099.19;3153107;28;20059;-62
2022/01/22 02:24:41;;;;;;;5.25;1.42;;;;;;;-1.75;47.37;100091.50;3158216;28;20045;-62
2022/01/22 02:26:15;;;;;;;5.13;2.03;;;;;;;-1.73;47.45;100085.56;3154956;28;20058;-61
2022/01/22 02:27:47;;;;;;;3.45;1.33;;;;;;;-1.71;47.44;100085.59;3150355;28;20045;-62
2022/01/22 02:29:19;;;;;;;4.13;1.25;;;;;;;-1.72;47.46;100082.16;3148714;28;20102;-62
2022/01/22 02:30:56;;;;;;;3.15;1.35;;;;;;;-1.71;47.30;100083.03;3154174;28;20052;-62
2022/01/22 02:34:25;;;;;;;2.22;0.95;;;;;;;-1.73;47.44;100077.06;3152496;28;20045;-62
2022/01/22 02:36:02;;;;;;;4.85;1.27;;;;;;;-1.73;47.36;100082.16;3153229;28;20137;-62
2022/01/22 02:37:43;;;;;;;1.80;1.02;;;;;;;-1.71;47.35;100085.59;3146466;28;20045;-63
2022/01/22 02:39:19;;;;;;;4.47;1.40;;;;;;;-1.73;47.55;100087.25;3155523;28;20069;-62
2022/01/22 02:40:51;;;;;;;3.90;1.23;;;;;;;-1.92;47.30;100046.25;3148360;28;20443;-62
2022/01/22 02:42:27;;;;;;;4.07;1.50;;;;;;;-1.74;47.42;100071.09;3151136;28;20052;-62
2022/01/22 02:44:00;;;;;;;6.30;1.55;;;;;;;-1.73;47.55;100072.78;3156249;28;20043;-62
2022/01/22 02:45:32;;;;;;;3.28;1.33;;;;;;;-1.73;47.39;100069.38;3150067;28;20059;-62
2022/01/22 02:47:06;;;;;;;4.32;1.50;;;;;;;-1.70;47.51;100072.81;3149968;28;20156;-61
2022/01/22 02:48:38;;;;;;;8.85;2.25;;;;;;;-1.73;47.53;100072.78;3153583;28;20051;-61
2022/01/22 02:50:10;;;;;;;6.88;2.17;;;;;;;-1.72;47.58;100073.66;3146046;28;20129;-62
2022/01/22 02:51:41;;;;;;;6.93;1.98;;;;;;;-1.73;47.24;100069.38;3151629;28;20047;-63
2022/01/22 02:53:15;;;;;;;4.53;1.45;;;;;;;-1.71;47.54;100078.78;3157118;28;20059;-62
2022/01/22 02:54:47;;;;;;;;;;;;;;;-1.90;47.49;100076.88;3158087;28;20139;-61
2022/01/22 02:56:19;;;;;;;5.50;2.13;;;;;;;-1.86;47.80;100081.19;3154167;28;20412;-62
2022/01/22 02:57:51;;;;;;;4.05;1.60;;;;;;;-1.81;47.63;100076.97;3150470;28;20049;-63
2022/01/22 02:59:23;;;;;;;5.50;1.75;;;;;;;-1.77;47.63;100077.88;3147219;28;20056;-61
2022/01/22 03:00:55;;;;;;;5.38;1.85;;;;;;;-1.78;47.60;100071.88;3154583;28;20047;-63
2022/01/22 03:02:28;;;;;;;4.07;1.35;;;;;;;-1.78;47.47;100059.13;3146205;28;20106;-61
2022/01/22 03:03:59;;;;;;;3.80;1.60;;;;;;;-1.78;47.39;100058.28;3148936;28;20048;-61
2022/01/22 03:05:31;;;;;;;3.25;1.38;;;;;;;-1.77;47.46;100060.84;3155519;28;20051;-61
2022/01/22 03:07:04;;;;;;;4.40;1.50;;;;;;;-1.76;47.48;100056.59;3146496;28;20056;-61
2022/01/22 03:08:39;;;;;;;3.40;1.25;;;;;;;-1.75;47.46;100056.59;3152180;28;20052;-61
2022/01/22 03:10:13;;;;;;;4.95;1.52;;;;;;;-1.76;47.46;100051.50;3153509;28;20060;-61
2022/01/22 03:12:00;;;;;;;5.43;1.13;;;;;;;-1.77;47.47;100054.91;3146167;28;20059;-62
2022/01/22 03:14:15;;;;;;;3.05;1.45;;;;;;;-1.79;47.63;100059.13;3153822;28;20473;-62
2022/01/22 03:15:58;;;;;;;2.50;1.15;;;;;;;-1.87;47.71;100056.50;3155329;28;20517;-62
2022/01/22 03:17:46;;;;;;;2.85;1.17;;;;;;;-1.85;47.52;100058.22;3151854;28;20049;-61
2022/01/22 03:19:32;;;;;;;3.47;0.95;;;;;;;-1.83;47.60;100055.69;3149260;28;20048;-62
2022/01/22 03:21:11;;;;;;;3.63;1.20;;;;;;;-1.84;47.55;100049.72;3149278;28;20177;-62
2022/01/22 03:23:05;;;;;;;4.00;1.08;;;;;;;-1.83;47.55;100050.59;3154486;28;20104;-63
2022/01/22 03:28:20;;;;;;;4.82;1.38;;;;;;;-1.84;47.53;100052.25;3147331;28;20044;-62
2022/01/22 03:29:52;;;;;;;3.22;1.30;;;;;;;-1.86;47.32;100042.91;3148819;28;20056;-62
2022/01/22 03:31:23;;;;;;;4.03;1.33;;;;;;;-1.82;47.41;100052.28;3155453;28;20534;-62
2022/01/22 03:32:56;;;;;;;4.05;1.25;;;;;;;-1.80;47.38;100052.28;3146086;28;20053;-62
2022/01/22 03:34:28;;;;;;;2.10;1.00;;;;;;;-1.82;47.48;100054.84;3151424;28;20109;-63
2022/01/22 03:36:05;;;;;;;4.20;1.60;;;;;;;-1.96;47.47;100018.13;3148081;28;20424;-63
2022/01/22 03:37:39;;;;;;;5.57;2.15;;;;;;;-1.77;47.50;100053.19;3150069;28;20523;-62
2022/01/22 03:39:11;;;;;;;;;;;;;;;-1.98;47.75;100051.31;3154677;28;20504;-62
2022/01/22 03:40:48;;;;;;;3.70;1.15;;;;;;;-1.90;47.88;100059.88;3145776;28;19927;-63
2022/01/22 03:42:20;;;;;;;5.22;1.65;;;;;;;-1.87;47.81;100059.03;3151794;28;20067;-63
2022/01/22 03:43:52;;;;;;;3.92;1.45;;;;;;;-1.86;47.68;100055.66;3155872;28;20060;-63
2022/01/22 03:45:25;;;;;;;2.92;1.20;;;;;;;-1.81;47.77;100054.00;3149624;28;20048;-63
2022/01/22 03:46:57;;;;;;;7.03;1.60;;;;;;;-1.81;47.78;100053.13;3151392;28;20051;-63
2022/01/22 03:48:28;;;;;;;4.55;1.48;;;;;;;-1.79;47.59;100059.97;3155450;28;20048;-63
2022/01/22 03:50:00;;;;;;;3.75;1.33;;;;;;;-1.81;47.69;100061.66;3145738;28;20117;-63
2022/01/22 03:51:32;;;;;;;4.55;1.17;;;;;;;-1.81;47.86;100061.66;3152331;28;20048;-63
2022/01/22 03:53:04;;;;;;;5.60;2.08;;;;;;;-1.81;47.79;100054.00;3153182;28;20110;-63
2022/01/22 03:54:36;;;;;;;13.40;1.67;;;;;;;-1.82;47.76;100054.84;3151567;28;20118;-63
2022/01/22 03:56:10;;;;;;;5.30;1.30;;;;;;;-1.81;47.92;100046.34;3152809;28;20543;-63
2022/01/22 03:57:42;;;;;;;5.60;1.92;;;;;;;-1.81;47.72;100050.59;3145739;28;20052;-63
2022/01/22 03:59:15;;;;;;;3.60;1.45;;;;;;;-1.83;47.79;100056.53;3152754;28;20087;-63
2022/01/22 04:00:47;;;;;;;5.15;1.75;;;;;;;-1.83;47.68;100055.69;3151057;28;20139;-63
2022/01/22 04:04:09;;;;;;;4.03;1.73;;;;;;;-1.85;47.92;100047.16;3151754;28;20589;-63
2022/01/22 04:05:58;;;;;;;4.88;1.55;;;;;;;-1.87;47.61;100052.22;3156816;28;20109;-63
2022/01/22 04:09:39;;;;;;;4.22;1.75;;;;;;;-1.90;47.95;100048.81;3150911;28;20493;-63
2022/01/22 04:11:15;;;;;;;4.00;1.40;;;;;;;-2.29;47.87;99978.69;3147585;28;20047;-63
2022/01/22 04:12:52;;;;;;;3.55;1.40;;;;;;;-1.92;47.87;100033.50;3153843;28;20220;-62
2022/01/22 04:14:26;;;;;;;4.38;1.52;;;;;;;-1.89;47.82;100047.97;3153575;28;20058;-62
2022/01/22 04:15:58;;;;;;;5.93;1.88;;;;;;;-1.88;47.83;100049.69;3157549;28;20051;-62
2022/01/22 04:24:49;;;;;;;5.00;2.20;;;;;;;-1.87;47.79;100044.56;3152176;28;20044;-62
2022/01/22 04:24:58;;;;;;;7.95;1.92;;;;;;;-1.96;47.93;100048.75;3151514;28;20028;-62
2022/01/22 04:26:41;;;;;;;3.45;1.60;;;;;;;-1.94;48.01;100049.63;3151501;28;20389;-61
2022/01/22 04:28:13;;;;;;;5.60;1.93;;;;;;;-1.95;48.03;100045.34;3147874;28;20052;-61
2022/01/22 04:29:45;;;;;;;6.75;1.75;;;;;;;-1.95;47.96;100048.78;3153331;28;20842;-61
2022/01/22 04:31:17;;;;;;;6.68;2.20;;;;;;;-1.94;47.98;100040.28;3147369;28;20044;-61
2022/01/22 04:32:49;;;;;;;6.80;1.42;;;;;;;-1.95;47.98;100051.34;3147699;28;20155;-61
2022/01/22 04:34:20;;;;;;;9.45;1.60;;;;;;;-1.97;48.06;100041.94;3154365;28;20420;-62
2022/01/22 04:35:52;;;;;;;6.32;1.70;;;;;;;-1.94;48.03;100044.53;3144986;28;20052;-61
2022/01/22 04:37:25;;;;;;;3.75;1.70;;;;;;;-1.92;48.20;100047.97;3149361;28;20421;-61
2022/01/22 04:38:57;;;;;;;;;;;;;;;-2.11;48.22;100040.09;3152292;28;20044;-61
2022/01/22 04:40:28;;;;;;;10.10;5.65;;;;;;;-2.04;48.28;100042.72;3145073;28;19921;-62
2022/01/22 04:42:02;;;;;;;6.15;3.33;;;;;;;-1.99;48.11;100048.72;3150454;28;20104;-62
2022/01/22 04:43:35;;;;;;;;;;;;;;;-2.16;48.24;100043.44;3152277;28;20048;-62
2022/01/22 04:45:17;;;;;;;6.68;3.33;;;;;;;-2.12;48.49;100042.66;3145186;28;20413;-62
2022/01/22 04:46:57;;;;;;;5.22;1.60;;;;;;;-2.08;48.45;100044.38;3152147;28;20052;-62
2022/01/22 04:48:42;;;;;;;6.30;1.77;;;;;;;-2.03;48.19;100052.94;3154672;28;20046;-62
2022/01/22 04:55:51;;;;;;;3.80;1.75;;;;;;;-2.05;48.08;100049.50;3121286;28;20106;-62
2022/01/22 04:57:23;;;;;;;5.10;1.92;;;;;;;-2.00;47.96;100050.44;3155598;28;20048;-62
2022/01/22 04:58:55;;;;;;;6.35;1.85;;;;;;;-1.99;48.09;100041.91;3153823;28;20079;-62
2022/01/22 05:00:27;;;;;;;5.45;1.95;;;;;;;-1.98;48.08;100050.41;3153909;28;20124;-62
2022/01/22 05:01:59;;;;;;;4.80;2.42;;;;;;;-1.98;47.98;100041.09;3144986;28;20106;-62
2022/01/22 05:03:31;;;;;;;5.57;1.83;;;;;;;-1.97;47.97;100041.94;3150198;28;20040;-62
2022/01/22 05:05:03;;;;;;;7.68;2.13;;;;;;;-1.95;47.94;100040.25;3154931;28;20662;-63
2022/01/22 05:06:35;;;;;;;7.35;2.35;;;;;;;-1.94;47.98;100047.06;3157000;28;20051;-62
2022/01/22 05:08:06;;;;;;;7.03;3.25;;;;;;;-1.92;47.77;100037.75;3153182;28;20056;-62
2022/01/22 05:09:38;;;;;;;9.18;3.60;;;;;;;-1.94;47.75;100037.72;3149592;28;20040;-62
2022/01/22 05:11:10;;;;;;;12.05;3.20;;;;;;;-1.94;47.89;100039.41;3145330;28;20048;-62
2022/01/22 05:12:44;;;;;;;8.90;3.60;;;;;;;-1.93;47.83;100041.97;3153833;28;20550;-62
2022/01/22 05:14:15;;;;;;;5.55;2.60;;;;;;;-1.92;47.83;100040.31;3150888;28;20491;-62
2022/01/22 05:15:47;;;;;;;11.43;2.63;;;;;;;-1.91;47.94;100034.34;3146764;28;20065;-61
2022/01/22 05:17:20;;;;;;;6.43;2.38;;;;;;;-1.93;47.80;100028.34;3154058;28;20120;-62
2022/01/22 05:18:59;;;;;;;6.20;2.60;;;;;;;-1.96;47.83;100025.78;3151048;28;20567;-62
2022/01/22 05:20:38;;;;;;;11.15;2.70;;;;;;;-1.94;47.84;100032.63;3151208;28;20193;-61
2022/01/22 05:22:26;;;;;;;4.82;1.70;;;;;;;-1.95;47.95;100028.38;3153200;28;20052;-63
2022/01/22 05:24:02;;;;;;;7.47;1.83;;;;;;;-1.97;47.94;100029.19;3149157;28;20056;-62
2022/01/22 05:25:39;;;;;;;7.18;2.03;;;;;;;-1.97;48.07;100030.03;3152884;28;20068;-62
2022/01/22 05:29:56;;;;;;;3.85;1.75;;;;;;;-1.97;47.98;100027.47;3101188;28;20050;-62
2022/01/22 05:31:35;;;;;;;;;;;;;;;-2.20;48.04;100028.94;3148187;28;20507;-63
2022/01/22 05:33:27;;;;;;;5.57;2.00;;;;;;;-2.12;48.22;100028.19;3148847;28;19999;-63
2022/01/22 05:36:58;;;;;;;7.88;2.35;;;;;;;-2.06;47.96;100027.41;3144783;28;20052;-63
2022/01/22 05:38:30;;;;;;;5.32;1.85;;;;;;;-2.03;47.86;100032.53;3153404;28;20055;-63
2022/01/22 05:40:02;;;;;;;7.45;2.38;;;;;;;-1.99;47.93;100029.16;3148117;28;20480;-62
2022/01/22 05:41:34;;;;;;;7.57;2.45;;;;;;;-1.99;47.85;100029.16;3146742;28;20043;-62
2022/01/22 05:43:06;;;;;;;9.00;2.17;;;;;;;-1.98;47.87;100035.09;3154617;28;20060;-62
2022/01/22 05:44:38;;;;;;;7.28;2.08;;;;;;;-1.95;47.82;100027.47;3148557;28;20055;-62
2022/01/22 05:46:10;;;;;;;5.13;1.92;;;;;;;-1.96;47.96;100033.44;3148087;28;20044;-62
2022/01/22 05:47:44;;;;;;;4.80;1.95;;;;;;;-1.93;47.76;100036.88;3148109;28;20044;-61
2022/01/22 05:49:16;;;;;;;4.70;1.80;;;;;;;-1.93;47.66;100031.75;3146660;28;20521;-62
2022/01/22 05:50:51;;;;;;;9.18;2.35;;;;;;;-1.91;47.73;100036.91;3152023;28;20748;-62
2022/01/22 05:52:30;;;;;;;9.13;2.20;;;;;;;-1.90;47.68;100041.16;3154268;28;20148;-62
2022/01/22 05:54:30;;;;;;;8.07;2.05;;;;;;;-1.91;47.85;100036.91;3155536;28;20082;-62
2022/01/22 05:59:43;;;;;;;6.60;2.60;;;;;;;-2.11;47.88;99994.16;3154418;28;20675;-62
2022/01/22 06:01:16;;;;;;;5.03;2.17;;;;;;;-2.09;47.55;99982.28;3150359;28;20044;-62
2022/01/22 06:02:48;;;;;;;;;;;;;;;-1.99;47.84;100033.41;3157751;28;20040;-62
2022/01/22 06:04:20;;;;;;;7.80;2.45;;;;;;;-1.92;48.04;100032.66;3153785;28;20001;-61
2022/01/22 06:05:52;;;;;;;9.18;2.95;;;;;;;-1.85;47.87;100030.13;3146903;28;20052;-61
2022/01/22 06:07:24;;;;;;;10.10;3.00;;;;;;;-1.80;47.72;100030.19;3152558;28;20044;-61
2022/01/22 06:08:57;;;;;;;7.00;2.75;;;;;;;-1.77;47.64;100022.56;3157907;28;20113;-62
2022/01/22 06:10:32;;;;;;;;;;;;;;;-1.93;47.79;100021.56;3154182;28;20098;-62
2022/01/22 06:12:15;;;;;;;8.30;2.55;;;;;;;-1.85;47.93;100021.63;3150628;28;20422;-62
2022/01/22 06:13:47;;;;;;;10.23;2.60;;;;;;;-1.78;47.92;100025.09;3153023;28;20044;-61
2022/01/22 06:15:21;;;;;;;8.40;2.40;;;;;;;-1.72;47.80;100020.88;3149766;28;20044;-61
2022/01/22 06:16:52;;;;;;;7.10;2.88;;;;;;;-1.72;47.65;100018.31;3151494;28;20134;-61
2022/01/22 06:18:24;;;;;;;8.75;3.33;;;;;;;-1.69;47.72;100013.25;3151120;28;20588;-61
2022/01/22 06:19:56;;;;;;;7.97;3.20;;;;;;;-1.65;47.72;100015.00;3150609;28;20048;-61
2022/01/22 06:21:28;;;;;;;6.55;2.78;;;;;;;-1.63;47.50;100010.75;3150793;28;20374;-61
2022/01/22 06:22:59;;;;;;;6.03;3.10;;;;;;;-1.58;47.55;100009.94;3150727;28;20116;-62
2022/01/22 06:24:31;;;;;;;7.90;3.20;;;;;;;-1.56;47.55;100004.00;3149137;28;20052;-62
2022/01/22 06:26:03;;;;;;;8.82;2.85;;;;;;;-1.55;47.26;100002.28;3151342;28;20114;-62
2022/01/22 06:27:35;;;;;;;6.15;3.05;;;;;;;-1.49;47.52;100007.44;3152362;28;20055;-62
2022/01/22 06:29:07;;;;;;;7.35;3.40;;;;;;;-1.44;47.19;100018.56;3151012;28;20117;-62
2022/01/22 06:30:41;;;;;;;7.57;3.08;;;;;;;-1.40;47.26;100016.00;3149828;28;20143;-62
2022/01/22 06:32:13;;;;;;;8.65;2.80;;;;;;;-1.35;47.24;100005.84;3148671;28;20079;-62
2022/01/22 06:33:45;;;;;;;13.82;4.03;;;;;;;-1.25;47.13;100005.03;3150859;28;20048;-63
2022/01/22 06:35:17;;;;;;;10.75;4.15;;;;;;;-1.06;47.19;99997.50;3150714;28;20135;-63
2022/01/22 06:36:49;;;;;;;10.30;3.70;;;;;;;-0.76;47.25;100001.88;3151349;28;20180;-63
2022/01/22 06:38:21;;;;;;;9.90;3.30;;;;;;;-0.46;46.96;99998.56;3152579;28;20121;-63
2022/01/22 06:41:44;;;;;;;9.10;3.20;;;;;;;-0.17;46.65;100000.34;3148955;28;20052;-63
2022/01/22 06:41:54;;;;;;;5.85;2.50;;;;;;;0.22;46.59;99989.28;3151976;28;20055;-62
2022/01/22 06:43:26;;;;;;;10.18;3.22;;;;;;;0.59;46.24;99989.22;3149259;28;20458;-63
2022/01/22 06:44:58;;;;;;;9.27;2.75;;;;;;;0.90;45.68;99978.06;3153311;28;20445;-63
2022/01/22 06:46:31;;;;;;;9.00;2.47;;;;;;;1.25;45.15;99986.50;3151485;28;20440;-63
2022/01/22 06:48:03;;;;;;;8.80;2.88;;;;;;;1.50;44.42;99976.94;3152923;28;20117;-64
2022/01/22 06:49:35;;;;;;;9.02;3.35;;;;;;;1.59;43.86;99951.22;3150195;28;20060;-63
2022/01/22 06:51:07;;;;;;;9.18;3.33;;;;;;;2.02;43.43;99974.03;3150694;28;20456;-63
2022/01/22 06:52:40;;;;;;;8.45;2.90;;;;;;;2.26;42.71;99973.84;3155781;28;20509;-62
2022/01/22 06:54:13;;;;;;;8.70;3.08;;;;;;;2.45;42.28;99974.50;3153301;28;20080;-61
2022/01/22 06:55:52;;;;;;;8.77;2.78;;;;;;;2.61;41.77;99964.97;3150660;28;20040;-62
2022/01/22 06:57:24;;;;;;;13.60;3.15;;;;;;;2.77;41.35;99964.78;3150287;28;20479;-61
2022/01/22 06:58:56;;;;;;;6.03;2.30;;;;;;;2.74;40.98;99943.38;3155320;28;20089;-61
2022/01/22 07:00:28;;;;;;;7.90;2.70;;;;;;;2.99;40.70;99963.69;3149566;28;20076;-63
2022/01/22 07:02:01;;;;;;;6.70;2.53;;;;;;;3.16;40.46;99964.31;3150434;28;20048;-60
2022/01/22 07:03:33;;;;;;;10.38;2.50;;;;;;;3.27;40.19;99961.63;3150425;28;20052;-60
2022/01/22 07:05:05;;;;;;;6.97;2.72;;;;;;;3.38;39.61;99967.47;3148880;28;20052;-60
2022/01/22 07:06:37;;;;;;;5.37;2.47;;;;;;;3.43;39.50;99959.69;3152915;28;20228;-60
2022/01/22 07:08:09;;;;;;;9.73;2.72;;;;;;;3.54;39.13;99967.28;3148497;28;20568;-62
2022/01/22 07:09:41;;;;;;;6.90;2.70;;;;;;;3.63;39.03;99972.28;3150637;28;20548;-61
2022/01/22 07:11:13;;;;;;;10.43;2.92;;;;;;;3.72;38.76;99972.16;3149856;28;20087;-59
2022/01/22 07:12:45;;;;;;;7.78;2.92;;;;;;;3.81;38.59;99969.44;3155788;28;20101;-60
2022/01/22 07:14:18;;;;;;;7.18;2.55;;;;;;;3.84;38.28;99971.13;3150313;28;20044;-60
2022/01/22 07:15:49;;;;;;;7.07;3.22;;;;;;;3.85;38.17;99959.97;3148031;28;20062;-60
2022/01/22 07:17:23;;;;;;;16.73;3.28;;;;;;;3.82;37.67;99973.75;3153238;28;20073;-59
2022/01/22 07:19:00;;;;;;;7.43;3.50;;;;;;;3.76;37.85;99968.69;3153809;28;20044;-60
2022/01/22 07:20:34;;;;;;;9.23;3.85;;;;;;;3.57;37.76;99954.34;3153435;28;20052;-60
2022/01/22 07:22:19;;;;;;;11.48;3.55;;;;;;;3.57;37.70;99964.66;3151942;28;20065;-60
2022/01/22 07:25:41;;;;;;;6.35;2.70;;;;;;;3.27;37.61;99964.19;3149935;28;20194;-60
2022/01/22 07:27:13;;;;;;;15.00;3.20;;;;;;;3.19;38.03;99964.31;3149854;28;20052;-61
2022/01/22 07:28:45;;;;;;;15.90;6.43;;;;;;;3.16;37.92;99961.75;3150776;28;20097;-60
2022/01/22 07:30:17;;;;;;;15.68;6.10;;;;;;;3.18;38.07;99962.59;3154225;28;20048;-60
2022/01/22 07:31:49;;;;;;;12.77;4.57;;;;;;;3.23;37.92;99948.81;3146714;28;20464;-60
2022/01/22 07:33:22;;;;;;;9.00;3.33;;;;;;;3.34;37.77;99952.97;3151024;28;20048;-61
2022/01/22 07:34:54;;;;;;;11.65;3.15;;;;;;;3.38;38.13;99941.75;3150212;28;20055;-64
2022/01/22 07:36:26;;;;;;;11.45;2.80;;;;;;;3.48;38.29;99947.59;3145624;28;20048;-65
2022/01/22 07:37:58;;;;;;;9.45;3.20;;;;;;;3.60;38.17;99939.69;3153785;28;20048;-66
2022/01/22 07:39:30;;;;;;;9.65;3.05;;;;;;;3.78;37.84;99940.31;3150846;28;20535;-66
2022/01/22 07:41:02;;;;;;;9.70;3.03;;;;;;;3.83;37.39;99939.38;3146811;28;20059;-59
2022/01/22 07:42:34;;;;;;;8.27;2.22;;;;;;;3.88;37.32;99929.84;3150061;28;20078;-60
2022/01/22 07:44:06;;;;;;;9.05;2.83;;;;;;;3.95;37.16;99942.63;3149816;28;20097;-61
2022/01/22 07:45:38;;;;;;;13.27;2.65;;;;;;;4.00;37.16;99939.09;3150922;28;20058;-61
2022/01/22 07:47:10;;;;;;;11.38;3.20;;;;;;;4.06;37.08;99935.59;3148637;28;20049;-60
2022/01/22 07:48:44;;;;;;;13.50;3.53;;;;;;;4.09;37.03;99930.38;3149417;28;20522;-60
2022/01/22 07:50:16;;;;;;;;;;;;;;;3.93;37.39;99932.34;3151165;28;20414;-60
2022/01/22 07:51:47;;;;;;;9.93;3.20;;;;;;;4.05;37.41;99934.75;3149313;28;19978;-61
2022/01/22 07:53:19;;;;;;;10.82;3.05;;;;;;;4.16;37.11;99926.81;3153131;28;20055;-60
2022/01/22 07:54:51;;;;;;;8.18;3.08;;;;;;;4.19;36.94;99939.66;3148504;28;20106;-60
2022/01/22 07:56:23;;;;;;;12.20;2.47;;;;;;;4.17;36.72;99928.53;3149824;28;20101;-61
2022/01/22 07:57:56;;;;;;;6.38;2.92;;;;;;;4.12;36.65;99920.03;3151014;28;20120;-61
2022/01/22 07:59:27;;;;;;;7.28;2.88;;;;;;;4.09;36.81;99920.06;3148960;28;20070;-62
2022/01/22 08:00:59;;;;;;;8.57;2.85;;;;;;;4.07;36.99;99917.50;3147545;28;20063;-61
2022/01/22 08:02:31;;;;;;;10.63;2.95;;;;;;;4.07;37.04;99926.97;3152779;28;20116;-61
2022/01/22 08:04:05;;;;;;;7.75;2.40;;;;;;;4.12;37.14;99927.75;3148541;28;20056;-61
2022/01/22 08:05:37;;;;;;;8.52;2.70;;;;;;;4.13;37.06;99929.44;3148533;28;20052;-61
2022/01/22 08:07:09;;;;;;;10.18;3.25;;;;;;;4.15;37.13;99927.69;3145292;28;20057;-62
2022/01/22 08:08:41;;;;;;;13.43;3.50;;;;;;;4.19;37.00;99929.34;3154647;28;20083;-62
2022/01/22 08:10:14;;;;;;;10.05;3.42;;;;;;;4.22;36.82;99926.72;3148981;28;20055;-62
2022/01/22 08:11:45;;;;;;;11.23;3.85;;;;;;;4.25;36.91;99926.66;3149863;28;20098;-62
2022/01/22 08:13:18;;;;;;;7.15;2.42;;;;;;;4.28;36.59;99928.31;3149923;28;20052;-62
2022/01/22 08:14:50;;;;;;;9.25;2.78;;;;;;;4.26;36.70;99928.38;3151106;28;20092;-62
2022/01/22 08:16:22;;;;;;;10.23;3.17;;;;;;;4.28;36.62;99921.44;3149088;28;20044;-62
2022/01/22 08:17:55;;;;;;;11.15;3.63;;;;;;;4.31;36.52;99926.53;3150500;28;20446;-62